createdAt,value
2022-08-25T02:01:34.973Z,5.00
2022-08-25T02:01:59.979Z,4.70
2022-08-25T02:02:15.826Z,4.00
2022-08-25T02:02:42.513Z,5.30
2022-08-25T02:03:03.479Z,4.70
2022-08-25T02:03:23.781Z,5.80
2022-08-25T02:03:45.663Z,6.40
2022-08-25T02:04:07.024Z,4.20
2022-08-25T02:04:28.628Z,4.10
2022-08-25T02:04:49.216Z,5.00
2022-08-25T02:05:11.279Z,5.00
2022-08-25T02:05:31.861Z,5.10
2022-08-25T02:05:53.317Z,5.90
2022-08-25T02:06:13.725Z,6.00
2022-08-25T02:06:34.316Z,4.70
2022-08-25T02:06:54.898Z,5.50
2022-08-25T02:07:15.478Z,5.20
2022-08-25T02:07:36.062Z,5.60
2022-08-25T02:07:56.645Z,6.00
2022-08-25T02:08:17.225Z,6.60
2022-08-25T02:08:37.626Z,7.10
2022-08-25T02:08:58.207Z,6.50
2022-08-25T02:09:18.787Z,6.70
2022-08-25T02:09:39.368Z,5.70
2022-08-25T02:10:03.334Z,4.20
2022-08-25T02:10:24.165Z,5.50
2022-08-25T02:10:44.745Z,4.60
2022-08-25T02:11:05.327Z,4.20
2022-08-25T02:11:25.921Z,5.10
2022-08-25T02:11:46.323Z,4.90
2022-08-25T02:12:06.907Z,5.20
2022-08-25T02:12:27.489Z,6.40
2022-08-25T02:12:48.069Z,5.00
2022-08-25T02:13:08.654Z,6.00
2022-08-25T02:13:31.312Z,6.20
2022-08-25T02:13:49.625Z,5.40
2022-08-25T02:14:10.217Z,4.80
2022-08-25T02:14:30.797Z,6.70
2022-08-25T02:14:51.380Z,7.10
2022-08-25T02:15:11.961Z,5.30
2022-08-25T02:15:32.546Z,5.70
2022-08-25T02:15:53.132Z,6.50
2022-08-25T02:16:13.743Z,5.90
2022-08-25T02:16:34.385Z,5.20
2022-08-25T02:16:55.118Z,4.60
2022-08-25T02:17:15.790Z,4.40
2022-08-25T02:17:36.375Z,3.80
2022-08-25T02:17:56.952Z,4.70
2022-08-25T02:18:17.536Z,5.90
2022-08-25T02:18:38.116Z,4.40
2022-08-25T02:18:58.699Z,4.30
2022-08-25T02:19:19.285Z,4.50
2022-08-25T02:19:39.864Z,5.80
2022-08-25T02:20:00.450Z,4.20
2022-08-25T02:20:21.031Z,5.70
2022-08-25T02:20:41.625Z,5.70
2022-08-25T02:21:02.208Z,5.40
2022-08-25T02:21:22.599Z,5.80
2022-08-25T02:21:43.009Z,6.40
2022-08-25T02:22:03.588Z,5.80
2022-08-25T02:22:24.172Z,5.70
2022-08-25T02:22:53.044Z,4.30
2022-08-25T02:23:05.164Z,5.10
2022-08-25T02:23:25.746Z,5.40
2022-08-25T02:23:46.332Z,4.70
2022-08-25T02:24:06.923Z,5.40
2022-08-25T02:24:27.495Z,5.70
2022-08-25T02:24:48.077Z,5.50
2022-08-25T02:25:08.656Z,4.90
2022-08-25T02:25:29.239Z,5.20
2022-08-25T02:25:49.825Z,6.60
2022-08-25T02:26:10.217Z,4.80
2022-08-25T02:26:30.802Z,6.20
2022-08-25T02:26:51.396Z,5.60
2022-08-25T02:27:11.979Z,6.50
2022-08-25T02:27:32.557Z,6.00
2022-08-25T02:27:53.139Z,6.00
2022-08-25T02:28:13.721Z,5.80
2022-08-25T02:28:34.302Z,6.40
2022-08-25T02:28:54.885Z,5.00
2022-08-25T02:29:15.463Z,6.50
2022-08-25T02:29:36.048Z,6.30
2022-08-25T02:29:56.631Z,4.50
2022-08-25T02:30:17.213Z,5.10
2022-08-25T02:30:37.896Z,5.20
2022-08-25T02:30:58.647Z,5.60
2022-08-25T02:31:22.001Z,4.10
2022-08-25T02:31:42.581Z,4.80
2022-08-25T02:32:03.178Z,6.10
2022-08-25T02:32:23.758Z,7.10
2022-08-25T02:32:44.339Z,5.40
2022-08-25T02:33:04.933Z,6.10
2022-08-25T02:33:25.521Z,5.30
2022-08-25T02:33:46.113Z,5.80
2022-08-25T02:34:07.881Z,5.50
2022-08-25T02:34:28.810Z,7.00
2022-08-25T02:34:49.390Z,5.30
2022-08-25T02:35:09.790Z,5.50
2022-08-25T02:35:30.370Z,5.10
2022-08-25T02:35:50.954Z,5.10
2022-08-25T02:36:11.535Z,5.90
2022-08-25T02:36:32.141Z,5.60
2022-08-25T02:36:52.709Z,7.90
2022-08-25T02:37:13.289Z,6.60
2022-08-25T02:37:33.878Z,6.40
2022-08-25T02:37:54.560Z,6.60
2022-08-25T02:38:15.162Z,7.60
2022-08-25T02:38:35.743Z,5.60
2022-08-25T02:38:56.323Z,4.50
2022-08-25T02:39:16.909Z,5.20
2022-08-25T02:39:37.483Z,5.20
2022-08-25T02:39:58.131Z,4.60
2022-08-25T02:40:18.518Z,4.30
2022-08-25T02:40:39.142Z,6.00
2022-08-25T02:40:59.727Z,5.20
2022-08-25T02:41:20.315Z,5.10
2022-08-25T02:41:40.892Z,5.90
2022-08-25T02:42:01.495Z,5.60
2022-08-25T02:42:22.077Z,5.80
2022-08-25T02:42:42.824Z,5.80
2022-08-25T02:43:03.359Z,5.20
2022-08-25T02:43:23.942Z,6.00
2022-08-25T02:43:44.629Z,5.10
2022-08-25T02:44:05.164Z,5.60
2022-08-25T02:44:25.748Z,6.40
2022-08-25T02:44:46.328Z,6.60
2022-08-25T02:45:06.908Z,6.00
2022-08-25T02:45:27.489Z,5.50
2022-08-25T02:45:48.155Z,5.60
2022-08-25T02:46:08.862Z,5.00
2022-08-25T02:46:30.406Z,5.60
2022-08-25T02:46:50.999Z,4.90
2022-08-25T02:47:11.587Z,5.00
2022-08-25T02:47:32.165Z,6.70
2022-08-25T02:47:52.745Z,6.50
2022-08-25T02:48:13.325Z,6.30
2022-08-25T02:48:33.910Z,5.60
2022-08-25T02:48:54.301Z,5.80
2022-08-25T02:49:14.902Z,5.40
2022-08-25T02:49:35.487Z,4.90
2022-08-25T02:49:56.066Z,4.60
2022-08-25T02:50:16.653Z,4.90
2022-08-25T02:50:37.241Z,5.40
2022-08-25T02:50:57.825Z,5.60
2022-08-25T02:51:18.407Z,5.90
2022-08-25T02:51:38.996Z,5.00
2022-08-25T02:51:59.589Z,5.50
2022-08-25T02:52:21.881Z,8.00
2022-08-25T02:52:42.464Z,5.20
2022-08-25T02:53:03.048Z,6.70
2022-08-25T02:53:23.631Z,5.80
2022-08-25T02:53:44.290Z,5.10
2022-08-25T02:54:04.612Z,4.80
2022-08-25T02:54:25.188Z,6.30
2022-08-25T02:54:45.771Z,6.10
2022-08-25T02:55:06.351Z,5.50
2022-08-25T02:55:26.941Z,5.70
2022-08-25T02:55:47.519Z,6.10
2022-08-25T02:56:08.102Z,7.70
2022-08-25T02:56:28.684Z,7.00
2022-08-25T02:56:49.291Z,6.70
2022-08-25T02:57:09.876Z,6.50
2022-08-25T02:57:30.461Z,7.20
2022-08-25T02:57:51.042Z,7.20
2022-08-25T02:58:11.627Z,6.00
2022-08-25T02:58:32.206Z,4.70
2022-08-25T02:58:52.792Z,7.20
2022-08-25T02:59:13.370Z,7.50
2022-08-25T02:59:33.952Z,5.50
2022-08-25T02:59:54.532Z,4.60
2022-08-25T03:00:15.114Z,5.40
2022-08-25T03:00:35.694Z,6.30
2022-08-25T03:00:56.467Z,7.10
2022-08-25T03:01:17.149Z,5.70
2022-08-25T03:01:37.786Z,5.10
2022-08-25T03:01:58.412Z,5.90
2022-08-25T03:02:18.993Z,7.60
2022-08-25T03:02:39.572Z,6.70
2022-08-25T03:02:59.973Z,5.90
2022-08-25T03:03:20.561Z,7.10
2022-08-25T03:03:41.202Z,5.30
2022-08-25T03:04:04.008Z,6.60
2022-08-25T03:04:24.614Z,6.90
2022-08-25T03:04:45.288Z,5.30
2022-08-25T03:05:06.089Z,6.00
2022-08-25T03:05:26.695Z,6.40
2022-08-25T03:05:47.279Z,6.10
2022-08-25T03:06:07.860Z,5.10
2022-08-25T03:06:28.447Z,6.00
2022-08-25T03:06:49.035Z,5.30
2022-08-25T03:07:09.635Z,5.70
2022-08-25T03:07:35.477Z,7.20
2022-08-25T03:07:56.158Z,5.20
2022-08-25T03:08:18.428Z,6.50
2022-08-25T03:08:39.008Z,6.00
2022-08-25T03:08:59.599Z,5.60
2022-08-25T03:09:20.181Z,5.20
2022-08-25T03:09:40.758Z,5.30
2022-08-25T03:10:01.340Z,6.00
2022-08-25T03:10:21.921Z,6.60
2022-08-25T03:10:42.506Z,5.70
2022-08-25T03:11:03.088Z,5.20
2022-08-25T03:11:23.670Z,6.60
2022-08-25T03:11:44.253Z,5.50
2022-08-25T03:12:04.854Z,6.30
2022-08-25T03:12:25.438Z,5.90
2022-08-25T03:12:46.021Z,6.40
2022-08-25T03:13:06.417Z,5.40
2022-08-25T03:13:26.991Z,7.00
2022-08-25T03:13:47.571Z,5.90
2022-08-25T03:14:08.159Z,4.90
2022-08-25T03:14:28.740Z,6.90
2022-08-25T03:14:49.321Z,6.70
2022-08-25T03:15:13.180Z,6.00
2022-08-25T03:15:33.854Z,6.30
2022-08-25T03:15:54.431Z,6.00
2022-08-25T03:16:15.070Z,5.40
2022-08-25T03:16:36.030Z,7.10
2022-08-25T03:16:56.650Z,7.50
2022-08-25T03:17:17.242Z,5.90
2022-08-25T03:17:37.826Z,6.20
2022-08-25T03:17:59.914Z,7.80
2022-08-25T03:18:19.251Z,7.10
2022-08-25T03:18:39.842Z,6.50
2022-08-25T03:19:00.632Z,6.50
2022-08-25T03:19:21.219Z,6.20
2022-08-25T03:19:41.611Z,7.00
2022-08-25T03:20:02.195Z,5.20
2022-08-25T03:20:22.592Z,5.50
2022-08-25T03:20:43.174Z,6.60
2022-08-25T03:21:03.752Z,7.20
2022-08-25T03:21:24.334Z,6.00
2022-08-25T03:21:44.923Z,5.50
2022-08-25T03:22:05.521Z,6.00
2022-08-25T03:22:26.098Z,6.70
2022-08-25T03:22:47.714Z,6.20
2022-08-25T03:23:08.296Z,6.80
2022-08-25T03:23:28.883Z,5.60
2022-08-25T03:23:49.464Z,7.00
2022-08-25T03:24:10.046Z,7.10
2022-08-25T03:24:30.628Z,6.40
2022-08-25T03:24:51.215Z,5.40
2022-08-25T03:25:11.806Z,5.40
2022-08-25T03:25:32.400Z,6.00
2022-08-25T03:25:53.001Z,6.20
2022-08-25T03:26:15.675Z,5.30
2022-08-25T03:26:36.259Z,5.40
2022-08-25T03:26:56.861Z,7.10
2022-08-25T03:27:17.449Z,8.30
2022-08-25T03:27:38.026Z,7.20
2022-08-25T03:27:58.610Z,6.10
2022-08-25T03:28:19.191Z,6.60
2022-08-25T03:28:41.205Z,7.90
2022-08-25T03:29:01.786Z,6.20
2022-08-25T03:29:22.370Z,5.90
2022-08-25T03:29:42.955Z,8.60
2022-08-25T03:30:03.540Z,7.70
2022-08-25T03:30:24.139Z,6.80
2022-08-25T03:30:44.715Z,6.30
2022-08-25T03:31:05.307Z,5.90
2022-08-25T03:31:25.941Z,6.70
2022-08-25T03:31:46.625Z,7.20
2022-08-25T03:32:07.346Z,6.80
2022-08-25T03:32:27.962Z,7.50
2022-08-25T03:32:48.561Z,7.50
2022-08-25T03:33:09.161Z,6.50
2022-08-25T03:33:29.764Z,7.30
2022-08-25T03:33:50.156Z,7.90
2022-08-25T03:34:10.559Z,8.60
2022-08-25T03:34:31.146Z,7.20
2022-08-25T03:34:51.733Z,8.50
2022-08-25T03:35:12.321Z,7.80
2022-08-25T03:35:32.724Z,9.20
2022-08-25T03:35:53.675Z,8.60
2022-08-25T03:36:14.261Z,8.60
2022-08-25T03:36:34.892Z,8.70
2022-08-25T03:36:55.474Z,8.00
2022-08-25T03:37:16.129Z,7.90
2022-08-25T03:37:36.716Z,8.10
2022-08-25T03:37:57.297Z,7.30
2022-08-25T03:38:17.888Z,7.90
2022-08-25T03:38:38.517Z,9.60
2022-08-25T03:39:00.312Z,9.00
2022-08-25T03:39:19.471Z,10.40
2022-08-25T03:39:40.065Z,9.70
2022-08-25T03:40:00.704Z,9.50
2022-08-25T03:40:21.305Z,7.60
2022-08-25T03:40:41.877Z,8.30
2022-08-25T03:41:02.472Z,9.30
2022-08-25T03:41:23.058Z,10.40
2022-08-25T03:41:43.652Z,9.80
2022-08-25T03:42:04.298Z,9.90
2022-08-25T03:42:24.883Z,9.30
2022-08-25T03:42:45.475Z,9.80
2022-08-25T03:43:05.873Z,11.00
2022-08-25T03:43:26.478Z,10.70
2022-08-25T03:43:48.104Z,9.70
2022-08-25T03:44:09.501Z,10.30
2022-08-25T03:44:30.090Z,9.70
2022-08-25T03:44:50.702Z,9.50
2022-08-25T03:45:11.306Z,8.80
2022-08-25T03:45:32.002Z,9.30
2022-08-25T03:45:52.643Z,9.40
2022-08-25T03:46:13.273Z,8.50
2022-08-25T03:46:33.849Z,8.80
2022-08-25T03:46:54.250Z,9.00
2022-08-25T03:47:14.854Z,11.00
2022-08-25T03:47:35.450Z,12.10
2022-08-25T03:47:56.038Z,11.80
2022-08-25T03:48:16.638Z,11.50
2022-08-25T03:48:37.228Z,10.80
2022-08-25T03:48:57.828Z,10.50
2022-08-25T03:49:18.420Z,10.30
2022-08-25T03:49:39.044Z,11.30
2022-08-25T03:49:59.417Z,11.00
2022-08-25T03:50:20.005Z,10.50
2022-08-25T03:50:40.602Z,12.90
2022-08-25T03:51:01.207Z,10.50
2022-08-25T03:51:21.605Z,10.50
2022-08-25T03:51:42.190Z,11.30
2022-08-25T03:52:02.784Z,8.80
2022-08-25T03:52:23.392Z,9.30
2022-08-25T03:52:43.801Z,10.10
2022-08-25T03:53:04.379Z,11.10
2022-08-25T03:53:24.966Z,10.60
2022-08-25T03:53:45.554Z,11.80
2022-08-25T03:54:06.141Z,10.00
2022-08-25T03:54:26.734Z,12.00
2022-08-25T03:54:47.329Z,10.00
2022-08-25T03:55:07.919Z,10.70
2022-08-25T03:55:28.516Z,10.50
2022-08-25T03:55:49.980Z,10.10
2022-08-25T03:56:10.572Z,9.90
2022-08-25T03:56:31.160Z,10.30
2022-08-25T03:56:51.745Z,11.20
2022-08-25T03:57:12.348Z,9.90
2022-08-25T03:57:32.935Z,11.50
2022-08-25T03:57:53.515Z,11.70
2022-08-25T03:58:14.095Z,10.60
2022-08-25T03:58:34.681Z,12.20
2022-08-25T03:58:55.257Z,13.20
2022-08-25T03:59:15.839Z,11.60
2022-08-25T03:59:36.430Z,11.50
2022-08-25T03:59:57.011Z,14.20
2022-08-25T04:00:17.594Z,12.50
2022-08-25T04:00:38.176Z,11.40
2022-08-25T04:00:58.799Z,10.30
2022-08-25T04:01:19.431Z,10.50
2022-08-25T04:01:40.076Z,11.60
2022-08-25T04:02:00.777Z,13.70
2022-08-25T04:02:21.451Z,11.90
2022-08-25T04:02:42.073Z,11.70
2022-08-25T04:03:02.627Z,12.00
2022-08-25T04:03:23.205Z,10.60
2022-08-25T04:03:43.791Z,9.40
2022-08-25T04:04:04.373Z,10.10
2022-08-25T04:04:24.955Z,10.30
2022-08-25T04:04:45.534Z,10.00
2022-08-25T04:05:06.314Z,11.50
2022-08-25T04:05:26.904Z,12.50
2022-08-25T04:05:47.479Z,13.70
2022-08-25T04:06:08.063Z,12.90
2022-08-25T04:06:28.654Z,10.50
2022-08-25T04:06:49.229Z,10.80
2022-08-25T04:07:09.816Z,11.70
2022-08-25T04:07:30.412Z,11.30
2022-08-25T04:07:50.994Z,11.30
2022-08-25T04:08:11.577Z,12.20
2022-08-25T04:08:31.972Z,10.30
2022-08-25T04:08:52.556Z,8.90
2022-08-25T04:09:13.138Z,11.10
2022-08-25T04:09:36.803Z,11.10
2022-08-25T04:09:57.521Z,9.50
2022-08-25T04:10:18.106Z,11.10
2022-08-25T04:10:38.836Z,11.40
2022-08-25T04:10:59.428Z,11.60
2022-08-25T04:11:20.012Z,11.60
2022-08-25T04:11:40.601Z,12.90
2022-08-25T04:12:03.145Z,11.60
2022-08-25T04:12:23.551Z,9.60
2022-08-25T04:12:44.141Z,10.00
2022-08-25T04:13:04.724Z,9.90
2022-08-25T04:13:25.307Z,9.60
2022-08-25T04:13:45.888Z,10.00
2022-08-25T04:14:06.466Z,9.80
2022-08-25T04:14:27.062Z,12.20
2022-08-25T04:14:47.626Z,10.70
2022-08-25T04:15:08.221Z,9.70
2022-08-25T04:15:30.245Z,10.10
2022-08-25T04:15:50.927Z,10.40
2022-08-25T04:16:11.581Z,8.90
2022-08-25T04:16:31.979Z,10.20
2022-08-25T04:16:52.619Z,10.90
2022-08-25T04:17:13.190Z,11.10
2022-08-25T04:17:33.776Z,10.10
2022-08-25T04:17:54.357Z,10.10
2022-08-25T04:18:14.938Z,10.70
2022-08-25T04:18:35.523Z,9.20
2022-08-25T04:18:56.107Z,9.60
2022-08-25T04:19:16.684Z,11.30
2022-08-25T04:19:37.273Z,12.20
2022-08-25T04:19:57.853Z,10.30
2022-08-25T04:20:18.444Z,10.40
2022-08-25T04:20:42.200Z,10.40
2022-08-25T04:20:59.435Z,10.60
2022-08-25T04:21:19.838Z,10.10
2022-08-25T04:21:40.426Z,10.70
2022-08-25T04:22:01.010Z,9.40
2022-08-25T04:22:21.418Z,9.30
2022-08-25T04:22:44.942Z,8.40
2022-08-25T04:23:05.738Z,9.10
2022-08-25T04:23:26.317Z,8.60
2022-08-25T04:23:46.901Z,13.20
2022-08-25T04:24:07.300Z,13.30
2022-08-25T04:24:27.903Z,11.80
2022-08-25T04:24:48.475Z,10.70
2022-08-25T04:25:09.057Z,11.80
2022-08-25T04:25:29.641Z,10.10
2022-08-25T04:25:50.221Z,11.30
2022-08-25T04:26:10.801Z,9.50
2022-08-25T04:26:31.389Z,11.00
2022-08-25T04:26:51.975Z,10.20
2022-08-25T04:27:12.555Z,9.80
2022-08-25T04:27:33.153Z,8.70
2022-08-25T04:27:53.740Z,10.90
2022-08-25T04:28:14.326Z,11.30
2022-08-25T04:28:35.880Z,11.40
2022-08-25T04:28:56.456Z,12.40
2022-08-25T04:29:17.041Z,11.10
2022-08-25T04:29:37.626Z,9.10
2022-08-25T04:29:58.208Z,9.40
2022-08-25T04:30:18.795Z,9.80
2022-08-25T04:30:39.375Z,10.50
2022-08-25T04:30:59.956Z,9.80
2022-08-25T04:31:20.573Z,9.40
2022-08-25T04:31:41.180Z,11.20
2022-08-25T04:32:01.922Z,8.90
2022-08-25T04:32:22.552Z,8.10
2022-08-25T04:32:43.144Z,10.40
2022-08-25T04:33:03.724Z,10.90
2022-08-25T04:33:24.118Z,8.80
2022-08-25T04:33:44.699Z,8.50
2022-08-25T04:34:05.091Z,9.30
2022-08-25T04:34:28.928Z,8.40
2022-08-25T04:34:45.906Z,9.10
2022-08-25T04:35:06.490Z,10.70
2022-08-25T04:35:27.083Z,10.30
2022-08-25T04:35:47.670Z,11.00
2022-08-25T04:36:12.084Z,9.10
2022-08-25T04:36:32.984Z,8.60
2022-08-25T04:36:53.384Z,10.50
2022-08-25T04:37:13.966Z,9.40
2022-08-25T04:37:34.574Z,9.80
2022-08-25T04:37:55.248Z,8.90
2022-08-25T04:38:15.827Z,11.20
2022-08-25T04:38:36.219Z,10.70
2022-08-25T04:38:56.804Z,9.00
2022-08-25T04:39:17.387Z,9.20
2022-08-25T04:39:37.966Z,9.30
2022-08-25T04:39:58.635Z,9.10
2022-08-25T04:40:19.286Z,9.80
2022-08-25T04:40:39.616Z,10.40
2022-08-25T04:41:00.017Z,9.40
2022-08-25T04:41:20.604Z,8.60
2022-08-25T04:41:41.180Z,9.20
2022-08-25T04:42:01.764Z,10.00
2022-08-25T04:42:22.362Z,8.30
2022-08-25T04:42:42.945Z,8.30
2022-08-25T04:43:03.541Z,8.60
2022-08-25T04:43:24.129Z,9.50
2022-08-25T04:43:44.711Z,9.20
2022-08-25T04:44:05.294Z,9.70
2022-08-25T04:44:25.886Z,10.70
2022-08-25T04:44:46.480Z,9.50
2022-08-25T04:45:07.060Z,9.90
2022-08-25T04:45:27.703Z,9.70
2022-08-25T04:45:48.383Z,11.70
2022-08-25T04:46:09.040Z,10.90
2022-08-25T04:46:29.613Z,8.90
2022-08-25T04:46:50.190Z,9.10
2022-08-25T04:47:10.773Z,9.30
2022-08-25T04:47:31.371Z,10.80
2022-08-25T04:47:54.963Z,11.40
2022-08-25T04:48:15.733Z,9.80
2022-08-25T04:48:37.019Z,8.70
2022-08-25T04:48:57.599Z,9.90
2022-08-25T04:49:18.179Z,10.50
2022-08-25T04:49:38.582Z,9.70
2022-08-25T04:49:59.165Z,10.40
2022-08-25T04:50:19.746Z,10.00
2022-08-25T04:50:40.333Z,12.30
2022-08-25T04:51:00.913Z,10.90
2022-08-25T04:51:21.496Z,11.50
2022-08-25T04:51:42.075Z,10.60
2022-08-25T04:52:02.663Z,10.20
2022-08-25T04:52:24.813Z,10.10
2022-08-25T04:52:45.393Z,10.80
2022-08-25T04:53:05.979Z,12.10
2022-08-25T04:53:26.565Z,12.30
2022-08-25T04:53:47.148Z,10.30
2022-08-25T04:54:07.728Z,12.10
2022-08-25T04:54:28.390Z,12.00
2022-08-25T04:54:48.946Z,10.00
2022-08-25T04:55:09.524Z,9.80
2022-08-25T04:55:30.106Z,9.50
2022-08-25T04:55:50.687Z,11.00
2022-08-25T04:56:11.271Z,11.10
2022-08-25T04:56:31.853Z,11.80
2022-08-25T04:56:54.141Z,10.90
2022-08-25T04:57:16.974Z,13.10
2022-08-25T04:57:37.589Z,12.00
2022-08-25T04:57:58.168Z,9.90
2022-08-25T04:58:18.751Z,10.20
2022-08-25T04:58:39.339Z,10.10
2022-08-25T04:58:59.923Z,12.30
2022-08-25T04:59:20.503Z,9.20
2022-08-25T04:59:41.084Z,9.60
2022-08-25T05:00:01.664Z,11.00
2022-08-25T05:00:22.247Z,11.90
2022-08-25T05:00:42.677Z,12.80
2022-08-25T05:01:03.325Z,11.20
2022-08-25T05:01:23.929Z,12.40
2022-08-25T05:01:44.521Z,11.20
2022-08-25T05:02:05.130Z,10.80
2022-08-25T05:02:25.703Z,10.80
2022-08-25T05:02:46.287Z,11.50
2022-08-25T05:03:06.866Z,9.90
2022-08-25T05:03:27.444Z,11.10
2022-08-25T05:03:48.145Z,12.00
2022-08-25T05:04:08.805Z,9.80
2022-08-25T05:04:29.248Z,11.80
2022-08-25T05:04:49.884Z,11.00
2022-08-25T05:05:10.436Z,10.30
2022-08-25T05:05:31.020Z,9.80
2022-08-25T05:05:51.599Z,10.40
2022-08-25T05:06:15.872Z,12.60
2022-08-25T05:06:32.579Z,11.70
2022-08-25T05:06:53.159Z,12.00
2022-08-25T05:07:13.749Z,12.30
2022-08-25T05:07:34.348Z,11.10
2022-08-25T05:07:54.929Z,10.10
2022-08-25T05:08:15.509Z,11.10
2022-08-25T05:08:36.120Z,10.20
2022-08-25T05:08:56.706Z,10.90
2022-08-25T05:09:19.847Z,11.10
2022-08-25T05:09:42.334Z,10.80
2022-08-25T05:10:02.913Z,12.10
2022-08-25T05:10:23.493Z,13.00
2022-08-25T05:10:46.743Z,12.60
2022-08-25T05:11:07.202Z,12.10
2022-08-25T05:11:27.764Z,12.30
2022-08-25T05:11:48.353Z,12.40
2022-08-25T05:12:09.144Z,10.50
2022-08-25T05:12:32.658Z,11.60
2022-08-25T05:12:53.623Z,10.00
2022-08-25T05:13:14.207Z,10.40
2022-08-25T05:13:34.787Z,11.80
2022-08-25T05:13:55.368Z,11.70
2022-08-25T05:14:15.949Z,13.10
2022-08-25T05:14:36.530Z,12.70
2022-08-25T05:14:57.314Z,12.40
2022-08-25T05:15:17.905Z,13.60
2022-08-25T05:15:38.486Z,12.10
2022-08-25T05:15:59.097Z,12.00
2022-08-25T05:16:20.919Z,15.30
2022-08-25T05:16:41.568Z,13.40
2022-08-25T05:17:02.194Z,13.50
2022-08-25T05:17:22.750Z,13.40
2022-08-25T05:17:43.343Z,11.00
2022-08-25T05:18:03.927Z,11.10
2022-08-25T05:18:24.510Z,12.20
2022-08-25T05:18:44.908Z,11.70
2022-08-25T05:19:05.490Z,13.80
2022-08-25T05:19:26.076Z,14.50
2022-08-25T05:19:46.661Z,15.50
2022-08-25T05:20:07.246Z,15.20
2022-08-25T05:20:27.829Z,13.40
2022-08-25T05:20:48.409Z,15.60
2022-08-25T05:21:08.986Z,14.20
2022-08-25T05:21:29.581Z,14.30
2022-08-25T05:21:50.157Z,14.70
2022-08-25T05:22:10.739Z,13.00
2022-08-25T05:22:31.343Z,13.80
2022-08-25T05:22:51.924Z,13.60
2022-08-25T05:23:12.506Z,12.30
2022-08-25T05:23:33.087Z,12.00
2022-08-25T05:23:53.670Z,13.00
2022-08-25T05:24:14.249Z,16.90
2022-08-25T05:24:34.842Z,15.70
2022-08-25T05:24:55.422Z,12.90
2022-08-25T05:25:16.006Z,12.30
2022-08-25T05:25:36.583Z,13.00
2022-08-25T05:25:57.165Z,11.90
2022-08-25T05:26:20.402Z,12.30
2022-08-25T05:26:41.218Z,12.10
2022-08-25T05:27:01.798Z,12.70
2022-08-25T05:27:22.384Z,14.30
2022-08-25T05:27:42.986Z,15.50
2022-08-25T05:28:03.631Z,12.50
2022-08-25T05:28:24.188Z,15.10
2022-08-25T05:28:44.771Z,14.50
2022-08-25T05:29:05.354Z,13.30
2022-08-25T05:29:25.944Z,13.70
2022-08-25T05:29:46.331Z,16.90
2022-08-25T05:30:06.916Z,15.20
2022-08-25T05:30:27.494Z,14.40
2022-08-25T05:30:48.079Z,15.40
2022-08-25T05:31:08.733Z,13.70
2022-08-25T05:31:29.370Z,14.70
2022-08-25T05:31:50.852Z,16.70
2022-08-25T05:32:11.631Z,16.20
2022-08-25T05:32:32.581Z,16.30
2022-08-25T05:32:52.976Z,15.60
2022-08-25T05:33:13.559Z,14.10
2022-08-25T05:33:34.146Z,13.70
2022-08-25T05:33:54.728Z,12.30
2022-08-25T05:34:15.314Z,12.60
2022-08-25T05:34:35.895Z,15.00
2022-08-25T05:34:56.478Z,16.60
2022-08-25T05:35:17.060Z,13.70
2022-08-25T05:35:37.647Z,12.90
2022-08-25T05:35:58.228Z,13.30
2022-08-25T05:36:18.811Z,15.40
2022-08-25T05:36:39.394Z,12.10
2022-08-25T05:36:59.984Z,13.30
2022-08-25T05:37:20.584Z,15.10
2022-08-25T05:37:41.185Z,15.30
2022-08-25T05:38:01.792Z,15.40
2022-08-25T05:38:22.348Z,14.70
2022-08-25T05:38:42.938Z,14.70
2022-08-25T05:39:03.542Z,16.10
2022-08-25T05:39:24.109Z,14.70
2022-08-25T05:39:47.613Z,14.60
2022-08-25T05:40:08.228Z,14.10
2022-08-25T05:40:28.871Z,15.50
2022-08-25T05:40:49.464Z,15.00
2022-08-25T05:41:10.048Z,16.40
2022-08-25T05:41:30.635Z,15.30
2022-08-25T05:41:51.216Z,15.40
2022-08-25T05:42:11.801Z,15.60
2022-08-25T05:42:32.396Z,14.60
2022-08-25T05:42:52.977Z,16.70
2022-08-25T05:43:14.370Z,16.50
2022-08-25T05:43:34.952Z,14.70
2022-08-25T05:43:55.534Z,14.00
2022-08-25T05:44:20.399Z,15.40
2022-08-25T05:44:36.581Z,15.60
2022-08-25T05:44:57.179Z,17.00
2022-08-25T05:45:20.395Z,15.50
2022-08-25T05:45:41.368Z,16.30
2022-08-25T05:46:02.011Z,15.70
2022-08-25T05:46:22.559Z,16.60
2022-08-25T05:46:43.143Z,14.10
2022-08-25T05:47:03.725Z,14.60
2022-08-25T05:47:24.324Z,18.50
2022-08-25T05:47:44.909Z,16.50
2022-08-25T05:48:05.650Z,14.70
2022-08-25T05:48:26.300Z,13.40
2022-08-25T05:48:46.882Z,15.00
2022-08-25T05:49:07.464Z,15.30
2022-08-25T05:49:28.045Z,13.50
2022-08-25T05:49:48.631Z,17.00
2022-08-25T05:50:09.212Z,17.20
2022-08-25T05:50:29.796Z,14.60
2022-08-25T05:50:50.380Z,14.70
2022-08-25T05:51:10.968Z,15.20
2022-08-25T05:51:31.566Z,16.50
2022-08-25T05:51:52.145Z,15.70
2022-08-25T05:52:16.452Z,17.00
2022-08-25T05:52:33.157Z,17.60
2022-08-25T05:52:53.736Z,15.40
2022-08-25T05:53:14.331Z,16.90
2022-08-25T05:53:34.923Z,16.40
2022-08-25T05:53:55.308Z,18.90
2022-08-25T05:54:15.889Z,17.30
2022-08-25T05:54:36.467Z,16.80
2022-08-25T05:54:56.863Z,18.30
2022-08-25T05:55:17.449Z,16.20
2022-08-25T05:55:38.033Z,16.60
2022-08-25T05:55:58.430Z,15.90
2022-08-25T05:56:19.013Z,17.20
2022-08-25T05:56:39.599Z,16.20
2022-08-25T05:57:00.177Z,15.00
2022-08-25T05:57:20.595Z,19.30
2022-08-25T05:57:41.189Z,15.80
2022-08-25T05:58:01.771Z,16.20
2022-08-25T05:58:22.353Z,17.20
2022-08-25T05:58:42.936Z,17.20
2022-08-25T05:59:08.659Z,15.00
2022-08-25T05:59:23.927Z,16.50
2022-08-25T05:59:44.510Z,15.70
2022-08-25T06:00:05.091Z,17.10
2022-08-25T06:00:25.681Z,17.20
2022-08-25T06:00:46.378Z,16.30
2022-08-25T06:01:07.042Z,14.80
2022-08-25T06:01:27.732Z,16.90
2022-08-25T06:01:48.295Z,15.60
2022-08-25T06:02:08.874Z,14.90
2022-08-25T06:02:29.476Z,15.10
2022-08-25T06:02:50.056Z,16.40
2022-08-25T06:03:10.707Z,18.20
2022-08-25T06:03:31.321Z,13.80
2022-08-25T06:03:51.950Z,12.90
2022-08-25T06:04:12.516Z,15.00
2022-08-25T06:04:33.094Z,15.50
2022-08-25T06:04:53.668Z,14.70
2022-08-25T06:05:14.271Z,14.00
2022-08-25T06:05:34.835Z,14.90
2022-08-25T06:05:55.416Z,14.20
2022-08-25T06:06:15.998Z,13.90
2022-08-25T06:06:36.620Z,14.20
2022-08-25T06:06:57.012Z,15.00
2022-08-25T06:07:17.593Z,12.90
2022-08-25T06:07:38.190Z,14.50
2022-08-25T06:07:58.774Z,14.10
2022-08-25T06:08:19.368Z,13.90
2022-08-25T06:08:39.949Z,14.50
2022-08-25T06:09:00.728Z,15.00
2022-08-25T06:09:21.310Z,14.10
2022-08-25T06:09:41.890Z,14.00
2022-08-25T06:10:02.477Z,14.20
2022-08-25T06:10:22.875Z,15.00
2022-08-25T06:10:43.456Z,15.20
2022-08-25T06:11:04.044Z,16.20
2022-08-25T06:11:24.440Z,16.60
2022-08-25T06:11:45.017Z,17.10
2022-08-25T06:12:05.604Z,13.80
2022-08-25T06:12:28.028Z,14.40
2022-08-25T06:12:48.627Z,12.50
2022-08-25T06:13:09.358Z,12.80
2022-08-25T06:13:30.022Z,14.60
2022-08-25T06:13:50.603Z,17.10
2022-08-25T06:14:11.187Z,17.00
2022-08-25T06:14:31.775Z,16.50
2022-08-25T06:14:52.355Z,17.10
2022-08-25T06:15:12.942Z,16.90
2022-08-25T06:15:33.527Z,15.50
2022-08-25T06:15:54.132Z,14.70
2022-08-25T06:16:14.788Z,15.60
2022-08-25T06:16:35.420Z,14.50
2022-08-25T06:16:56.005Z,14.70
2022-08-25T06:17:16.597Z,15.30
2022-08-25T06:17:37.203Z,15.70
2022-08-25T06:18:00.869Z,17.00
2022-08-25T06:18:22.495Z,14.60
2022-08-25T06:18:43.086Z,16.60
2022-08-25T06:19:03.669Z,16.90
2022-08-25T06:19:24.243Z,16.30
2022-08-25T06:19:44.827Z,14.70
2022-08-25T06:20:06.209Z,15.90
2022-08-25T06:20:27.622Z,13.20
2022-08-25T06:20:48.203Z,14.10
2022-08-25T06:21:08.599Z,14.90
2022-08-25T06:21:29.191Z,14.10
2022-08-25T06:21:49.763Z,13.70
2022-08-25T06:22:10.344Z,16.70
2022-08-25T06:22:30.925Z,16.50
2022-08-25T06:22:51.528Z,15.90
2022-08-25T06:23:12.113Z,17.10
2022-08-25T06:23:32.699Z,16.80
2022-08-25T06:23:53.279Z,16.30
2022-08-25T06:24:15.703Z,16.00
2022-08-25T06:24:36.471Z,16.10
2022-08-25T06:24:57.053Z,14.90
2022-08-25T06:25:17.635Z,14.40
2022-08-25T06:25:38.222Z,13.30
2022-08-25T06:25:58.805Z,16.10
2022-08-25T06:26:21.072Z,16.40
2022-08-25T06:26:39.790Z,15.80
2022-08-25T06:27:00.378Z,15.90
2022-08-25T06:27:20.960Z,17.30
2022-08-25T06:27:41.558Z,16.30
2022-08-25T06:28:02.208Z,14.60
2022-08-25T06:28:22.795Z,15.80
2022-08-25T06:28:43.387Z,16.30
2022-08-25T06:29:03.992Z,14.60
2022-08-25T06:29:24.583Z,16.70
2022-08-25T06:29:45.158Z,16.80
2022-08-25T06:30:07.929Z,13.70
2022-08-25T06:30:29.224Z,15.60
2022-08-25T06:30:50.184Z,15.90
2022-08-25T06:31:10.795Z,14.60
2022-08-25T06:31:31.246Z,16.40
2022-08-25T06:31:51.887Z,17.10
2022-08-25T06:32:12.470Z,15.30